sensor_id;sensor_type;location;lat;lon;timestamp;P1;durP1;ratioP1;P2;durP2;ratioP2
36747;SDS011;22716;51.556;5.080;2023-07-20T00:01:15;11.13;;;5.82;;
36747;SDS011;22716;51.556;5.080;2023-07-20T00:03:44;14.35;;;5.07;;
36747;SDS011;22716;51.556;5.080;2023-07-20T00:06:20;9.60;;;5.20;;
36747;SDS011;22716;51.556;5.080;2023-07-20T00:08:49;11.47;;;5.13;;
36747;SDS011;22716;51.556;5.080;2023-07-20T00:11:17;11.00;;;4.97;;
36747;SDS011;22716;51.556;5.080;2023-07-20T00:13:46;11.27;;;4.40;;
36747;SDS011;22716;51.556;5.080;2023-07-20T00:16:17;8.00;;;4.85;;
36747;SDS011;22716;51.556;5.080;2023-07-20T00:18:46;12.80;;;6.88;;
36747;SDS011;22716;51.556;5.080;2023-07-20T00:21:14;9.30;;;4.70;;
36747;SDS011;22716;51.556;5.080;2023-07-20T00:23:43;7.97;;;4.13;;
36747;SDS011;22716;51.556;5.080;2023-07-20T00:26:12;15.37;;;5.43;;
36747;SDS011;22716;51.556;5.080;2023-07-20T00:28:40;11.67;;;5.10;;
36747;SDS011;22716;51.556;5.080;2023-07-20T00:31:09;13.52;;;5.53;;
36747;SDS011;22716;51.556;5.080;2023-07-20T00:33:40;9.93;;;3.83;;
36747;SDS011;22716;51.556;5.080;2023-07-20T00:36:09;12.27;;;4.07;;
36747;SDS011;22716;51.556;5.080;2023-07-20T00:38:38;8.65;;;3.75;;
36747;SDS011;22716;51.556;5.080;2023-07-20T00:41:07;9.52;;;4.15;;
36747;SDS011;22716;51.556;5.080;2023-07-20T00:43:35;7.68;;;4.05;;
36747;SDS011;22716;51.556;5.080;2023-07-20T00:46:04;10.73;;;3.40;;
36747;SDS011;22716;51.556;5.080;2023-07-20T00:48:33;11.00;;;3.95;;
36747;SDS011;22716;51.556;5.080;2023-07-20T00:51:04;12.17;;;4.40;;
36747;SDS011;22716;51.556;5.080;2023-07-20T00:53:33;12.17;;;5.30;;
36747;SDS011;22716;51.556;5.080;2023-07-20T00:56:02;8.37;;;4.40;;
36747;SDS011;22716;51.556;5.080;2023-07-20T00:58:34;10.87;;;4.97;;
36747;SDS011;22716;51.556;5.080;2023-07-20T01:01:03;9.07;;;5.57;;
36747;SDS011;22716;51.556;5.080;2023-07-20T01:03:32;11.80;;;6.00;;
36747;SDS011;22716;51.556;5.080;2023-07-20T01:06:02;10.43;;;5.88;;
36747;SDS011;22716;51.556;5.080;2023-07-20T01:08:40;13.18;;;8.65;;
36747;SDS011;22716;51.556;5.080;2023-07-20T01:11:13;12.27;;;8.52;;
36747;SDS011;22716;51.556;5.080;2023-07-20T01:13:45;11.45;;;7.65;;
36747;SDS011;22716;51.556;5.080;2023-07-20T01:16:14;13.30;;;7.40;;
36747;SDS011;22716;51.556;5.080;2023-07-20T01:18:43;12.55;;;8.10;;
36747;SDS011;22716;51.556;5.080;2023-07-20T01:21:17;10.13;;;7.93;;
36747;SDS011;22716;51.556;5.080;2023-07-20T01:24:05;10.90;;;8.13;;
36747;SDS011;22716;51.556;5.080;2023-07-20T01:26:53;13.13;;;7.95;;
36747;SDS011;22716;51.556;5.080;2023-07-20T01:29:47;8.82;;;7.30;;
36747;SDS011;22716;51.556;5.080;2023-07-20T01:32:34;11.75;;;8.23;;
36747;SDS011;22716;51.556;5.080;2023-07-20T01:35:05;10.27;;;7.40;;
36747;SDS011;22716;51.556;5.080;2023-07-20T01:37:35;9.80;;;8.33;;
36747;SDS011;22716;51.556;5.080;2023-07-20T01:40:07;13.32;;;10.00;;
36747;SDS011;22716;51.556;5.080;2023-07-20T01:42:37;10.77;;;8.82;;
36747;SDS011;22716;51.556;5.080;2023-07-20T01:45:06;9.50;;;8.50;;
36747;SDS011;22716;51.556;5.080;2023-07-20T01:47:39;11.52;;;8.90;;
36747;SDS011;22716;51.556;5.080;2023-07-20T01:50:08;13.75;;;10.80;;
36747;SDS011;22716;51.556;5.080;2023-07-20T01:52:37;16.58;;;11.63;;
36747;SDS011;22716;51.556;5.080;2023-07-20T01:55:06;14.38;;;10.60;;
36747;SDS011;22716;51.556;5.080;2023-07-20T01:57:35;12.38;;;10.23;;
36747;SDS011;22716;51.556;5.080;2023-07-20T02:00:02;14.33;;;10.87;;
36747;SDS011;22716;51.556;5.080;2023-07-20T02:02:32;15.43;;;10.47;;
36747;SDS011;22716;51.556;5.080;2023-07-20T02:05:03;18.05;;;11.48;;
36747;SDS011;22716;51.556;5.080;2023-07-20T02:07:32;14.40;;;9.70;;
36747;SDS011;22716;51.556;5.080;2023-07-20T02:10:01;15.33;;;11.50;;
36747;SDS011;22716;51.556;5.080;2023-07-20T02:12:29;13.57;;;10.43;;
36747;SDS011;22716;51.556;5.080;2023-07-20T02:14:58;19.48;;;13.68;;
36747;SDS011;22716;51.556;5.080;2023-07-20T02:17:27;13.60;;;11.00;;
36747;SDS011;22716;51.556;5.080;2023-07-20T02:19:56;14.48;;;11.25;;
36747;SDS011;22716;51.556;5.080;2023-07-20T02:22:28;13.27;;;9.80;;
36747;SDS011;22716;51.556;5.080;2023-07-20T02:24:56;14.37;;;11.93;;
36747;SDS011;22716;51.556;5.080;2023-07-20T02:27:25;21.93;;;12.93;;
36747;SDS011;22716;51.556;5.080;2023-07-20T02:29:53;17.63;;;13.40;;
36747;SDS011;22716;51.556;5.080;2023-07-20T02:32:22;15.30;;;12.57;;
36747;SDS011;22716;51.556;5.080;2023-07-20T02:34:51;16.67;;;12.65;;
36747;SDS011;22716;51.556;5.080;2023-07-20T02:37:20;15.98;;;12.18;;
36747;SDS011;22716;51.556;5.080;2023-07-20T02:39:51;16.50;;;13.30;;
36747;SDS011;22716;51.556;5.080;2023-07-20T02:42:20;22.10;;;12.70;;
36747;SDS011;22716;51.556;5.080;2023-07-20T02:44:51;16.67;;;13.02;;
36747;SDS011;22716;51.556;5.080;2023-07-20T02:47:19;17.40;;;13.07;;
36747;SDS011;22716;51.556;5.080;2023-07-20T02:49:48;17.05;;;12.65;;
36747;SDS011;22716;51.556;5.080;2023-07-20T02:52:17;17.10;;;12.98;;
36747;SDS011;22716;51.556;5.080;2023-07-20T02:54:45;17.83;;;14.43;;
36747;SDS011;22716;51.556;5.080;2023-07-20T02:57:17;17.90;;;12.68;;
36747;SDS011;22716;51.556;5.080;2023-07-20T02:59:45;14.85;;;12.52;;
36747;SDS011;22716;51.556;5.080;2023-07-20T03:02:14;15.60;;;12.27;;
36747;SDS011;22716;51.556;5.080;2023-07-20T03:04:43;20.40;;;12.87;;
36747;SDS011;22716;51.556;5.080;2023-07-20T03:07:11;14.85;;;12.18;;
36747;SDS011;22716;51.556;5.080;2023-07-20T03:09:40;15.53;;;12.83;;
36747;SDS011;22716;51.556;5.080;2023-07-20T03:12:09;14.07;;;12.47;;
36747;SDS011;22716;51.556;5.080;2023-07-20T03:14:41;17.20;;;13.55;;
36747;SDS011;22716;51.556;5.080;2023-07-20T03:17:09;15.90;;;11.53;;
36747;SDS011;22716;51.556;5.080;2023-07-20T03:19:38;15.17;;;11.73;;
36747;SDS011;22716;51.556;5.080;2023-07-20T03:22:07;12.77;;;11.13;;
36747;SDS011;22716;51.556;5.080;2023-07-20T03:24:35;15.10;;;10.65;;
36747;SDS011;22716;51.556;5.080;2023-07-20T03:27:04;15.40;;;10.73;;
36747;SDS011;22716;51.556;5.080;2023-07-20T03:29:33;13.27;;;10.17;;
36747;SDS011;22716;51.556;5.080;2023-07-20T03:32:05;11.82;;;9.82;;
36747;SDS011;22716;51.556;5.080;2023-07-20T03:34:34;16.67;;;9.70;;
36747;SDS011;22716;51.556;5.080;2023-07-20T03:37:02;12.07;;;9.57;;
36747;SDS011;22716;51.556;5.080;2023-07-20T03:39:32;13.60;;;8.57;;
36747;SDS011;22716;51.556;5.080;2023-07-20T03:42:01;12.55;;;8.52;;
36747;SDS011;22716;51.556;5.080;2023-07-20T03:44:30;10.27;;;8.23;;
36747;SDS011;22716;51.556;5.080;2023-07-20T03:46:59;12.27;;;7.97;;
36747;SDS011;22716;51.556;5.080;2023-07-20T03:49:31;9.32;;;8.15;;
36747;SDS011;22716;51.556;5.080;2023-07-20T03:52:00;12.77;;;8.27;;
36747;SDS011;22716;51.556;5.080;2023-07-20T03:54:29;10.50;;;7.83;;
36747;SDS011;22716;51.556;5.080;2023-07-20T03:56:57;16.25;;;7.60;;
36747;SDS011;22716;51.556;5.080;2023-07-20T03:59:26;8.90;;;7.40;;
36747;SDS011;22716;51.556;5.080;2023-07-20T04:01:55;9.10;;;6.90;;
36747;SDS011;22716;51.556;5.080;2023-07-20T04:04:23;9.80;;;7.10;;
36747;SDS011;22716;51.556;5.080;2023-07-20T04:06:54;8.23;;;7.38;;
36747;SDS011;22716;51.556;5.080;2023-07-20T04:09:23;11.32;;;8.15;;
36747;SDS011;22716;51.556;5.080;2023-07-20T04:11:51;11.67;;;8.70;;
36747;SDS011;22716;51.556;5.080;2023-07-20T04:14:20;10.10;;;8.80;;
36747;SDS011;22716;51.556;5.080;2023-07-20T04:16:49;9.43;;;7.55;;
36747;SDS011;22716;51.556;5.080;2023-07-20T04:19:19;11.37;;;9.10;;
36747;SDS011;22716;51.556;5.080;2023-07-20T04:21:48;11.00;;;7.77;;
36747;SDS011;22716;51.556;5.080;2023-07-20T04:24:19;10.07;;;7.75;;
36747;SDS011;22716;51.556;5.080;2023-07-20T04:26:47;8.33;;;7.40;;
36747;SDS011;22716;51.556;5.080;2023-07-20T04:29:16;9.27;;;6.68;;
36747;SDS011;22716;51.556;5.080;2023-07-20T04:31:45;8.87;;;7.17;;
36747;SDS011;22716;51.556;5.080;2023-07-20T04:34:13;8.05;;;6.13;;
36747;SDS011;22716;51.556;5.080;2023-07-20T04:36:43;8.23;;;6.60;;
36747;SDS011;22716;51.556;5.080;2023-07-20T04:39:12;10.00;;;6.53;;
36747;SDS011;22716;51.556;5.080;2023-07-20T04:41:43;12.40;;;7.28;;
36747;SDS011;22716;51.556;5.080;2023-07-20T04:44:12;20.80;;;7.45;;
36747;SDS011;22716;51.556;5.080;2023-07-20T04:46:42;10.70;;;6.63;;
36747;SDS011;22716;51.556;5.080;2023-07-20T04:49:10;6.82;;;5.45;;
36747;SDS011;22716;51.556;5.080;2023-07-20T04:51:39;8.50;;;6.93;;
36747;SDS011;22716;51.556;5.080;2023-07-20T04:54:08;10.50;;;6.55;;
36747;SDS011;22716;51.556;5.080;2023-07-20T04:56:36;9.50;;;7.03;;
36747;SDS011;22716;51.556;5.080;2023-07-20T04:59:07;10.43;;;5.63;;
36747;SDS011;22716;51.556;5.080;2023-07-20T05:01:36;7.17;;;5.33;;
36747;SDS011;22716;51.556;5.080;2023-07-20T05:04:05;6.78;;;4.93;;
36747;SDS011;22716;51.556;5.080;2023-07-20T05:06:33;5.93;;;5.25;;
36747;SDS011;22716;51.556;5.080;2023-07-20T05:09:04;8.70;;;5.17;;
36747;SDS011;22716;51.556;5.080;2023-07-20T05:11:33;9.93;;;5.40;;
36747;SDS011;22716;51.556;5.080;2023-07-20T05:14:01;6.97;;;4.90;;
36747;SDS011;22716;51.556;5.080;2023-07-20T05:16:33;5.80;;;4.90;;
36747;SDS011;22716;51.556;5.080;2023-07-20T05:19:01;8.00;;;5.45;;
36747;SDS011;22716;51.556;5.080;2023-07-20T05:21:30;8.90;;;5.18;;
36747;SDS011;22716;51.556;5.080;2023-07-20T05:23:59;4.93;;;4.25;;
36747;SDS011;22716;51.556;5.080;2023-07-20T05:26:27;5.13;;;4.60;;
36747;SDS011;22716;51.556;5.080;2023-07-20T05:28:56;6.78;;;3.75;;
36747;SDS011;22716;51.556;5.080;2023-07-20T05:31:24;7.20;;;4.90;;
36747;SDS011;22716;51.556;5.080;2023-07-20T05:33:58;4.90;;;3.80;;
36747;SDS011;22716;51.556;5.080;2023-07-20T05:36:27;5.57;;;3.92;;
36747;SDS011;22716;51.556;5.080;2023-07-20T05:38:56;5.13;;;3.40;;
36747;SDS011;22716;51.556;5.080;2023-07-20T05:41:25;4.27;;;2.77;;
36747;SDS011;22716;51.556;5.080;2023-07-20T05:43:53;3.47;;;2.97;;
36747;SDS011;22716;51.556;5.080;2023-07-20T05:46:22;4.88;;;2.65;;
36747;SDS011;22716;51.556;5.080;2023-07-20T05:48:50;5.03;;;2.97;;
36747;SDS011;22716;51.556;5.080;2023-07-20T05:51:22;3.08;;;2.85;;
36747;SDS011;22716;51.556;5.080;2023-07-20T05:53:50;4.53;;;3.03;;
36747;SDS011;22716;51.556;5.080;2023-07-20T05:56:19;3.08;;;2.13;;
36747;SDS011;22716;51.556;5.080;2023-07-20T05:58:47;3.28;;;2.08;;
36747;SDS011;22716;51.556;5.080;2023-07-20T06:01:16;4.03;;;1.83;;
36747;SDS011;22716;51.556;5.080;2023-07-20T06:03:45;1.65;;;1.35;;
36747;SDS011;22716;51.556;5.080;2023-07-20T06:06:14;1.60;;;1.38;;
36747;SDS011;22716;51.556;5.080;2023-07-20T06:08:45;5.03;;;1.42;;
36747;SDS011;22716;51.556;5.080;2023-07-20T06:11:13;2.42;;;1.95;;
36747;SDS011;22716;51.556;5.080;2023-07-20T06:13:42;2.23;;;1.30;;
36747;SDS011;22716;51.556;5.080;2023-07-20T06:16:11;2.30;;;2.00;;
36747;SDS011;22716;51.556;5.080;2023-07-20T06:18:40;2.63;;;1.77;;
36747;SDS011;22716;51.556;5.080;2023-07-20T06:21:08;3.15;;;2.30;;
36747;SDS011;22716;51.556;5.080;2023-07-20T06:23:37;2.30;;;1.80;;
36747;SDS011;22716;51.556;5.080;2023-07-20T06:26:09;6.38;;;2.70;;
36747;SDS011;22716;51.556;5.080;2023-07-20T06:28:37;2.53;;;2.13;;
36747;SDS011;22716;51.556;5.080;2023-07-20T06:31:06;2.38;;;1.90;;
36747;SDS011;22716;51.556;5.080;2023-07-20T06:33:34;3.40;;;2.33;;
36747;SDS011;22716;51.556;5.080;2023-07-20T06:36:03;2.67;;;1.95;;
36747;SDS011;22716;51.556;5.080;2023-07-20T06:38:32;3.40;;;2.25;;
36747;SDS011;22716;51.556;5.080;2023-07-20T06:41:01;3.15;;;2.35;;
36747;SDS011;22716;51.556;5.080;2023-07-20T06:43:32;2.30;;;1.45;;
36747;SDS011;22716;51.556;5.080;2023-07-20T06:46:01;4.50;;;1.90;;
36747;SDS011;22716;51.556;5.080;2023-07-20T06:48:29;2.83;;;2.03;;
36747;SDS011;22716;51.556;5.080;2023-07-20T06:50:58;4.45;;;2.03;;
36747;SDS011;22716;51.556;5.080;2023-07-20T06:53:28;2.08;;;1.83;;
36747;SDS011;22716;51.556;5.080;2023-07-20T06:55:56;2.55;;;1.33;;
36747;SDS011;22716;51.556;5.080;2023-07-20T06:58:25;3.72;;;1.65;;
36747;SDS011;22716;51.556;5.080;2023-07-20T07:00:56;4.07;;;2.57;;
36747;SDS011;22716;51.556;5.080;2023-07-20T07:03:25;3.58;;;1.50;;
36747;SDS011;22716;51.556;5.080;2023-07-20T07:05:55;3.42;;;1.60;;
36747;SDS011;22716;51.556;5.080;2023-07-20T07:08:24;3.57;;;1.30;;
36747;SDS011;22716;51.556;5.080;2023-07-20T07:10:52;3.97;;;1.85;;
36747;SDS011;22716;51.556;5.080;2023-07-20T07:13:21;3.67;;;1.50;;
36747;SDS011;22716;51.556;5.080;2023-07-20T07:15:50;2.87;;;1.47;;
36747;SDS011;22716;51.556;5.080;2023-07-20T07:18:22;3.53;;;1.43;;
36747;SDS011;22716;51.556;5.080;2023-07-20T07:20:52;1.58;;;1.35;;
36747;SDS011;22716;51.556;5.080;2023-07-20T07:23:21;1.40;;;1.20;;
36747;SDS011;22716;51.556;5.080;2023-07-20T07:25:49;3.47;;;1.27;;
36747;SDS011;22716;51.556;5.080;2023-07-20T07:28:18;1.80;;;1.02;;
36747;SDS011;22716;51.556;5.080;2023-07-20T07:30:46;1.90;;;0.50;;
36747;SDS011;22716;51.556;5.080;2023-07-20T07:33:16;3.03;;;0.90;;
36747;SDS011;22716;51.556;5.080;2023-07-20T07:35:47;1.53;;;0.73;;
36747;SDS011;22716;51.556;5.080;2023-07-20T07:38:16;0.60;;;0.57;;
36747;SDS011;22716;51.556;5.080;2023-07-20T07:40:45;3.90;;;0.63;;
36747;SDS011;22716;51.556;5.080;2023-07-20T07:43:13;1.70;;;0.63;;
36747;SDS011;22716;51.556;5.080;2023-07-20T07:45:42;1.60;;;1.23;;
36747;SDS011;22716;51.556;5.080;2023-07-20T07:48:11;2.93;;;1.00;;
36747;SDS011;22716;51.556;5.080;2023-07-20T07:50:39;2.83;;;0.50;;
36747;SDS011;22716;51.556;5.080;2023-07-20T07:53:10;2.30;;;0.90;;
36747;SDS011;22716;51.556;5.080;2023-07-20T07:55:39;2.50;;;0.70;;
36747;SDS011;22716;51.556;5.080;2023-07-20T07:58:08;2.17;;;0.93;;
36747;SDS011;22716;51.556;5.080;2023-07-20T08:00:36;3.03;;;0.75;;
36747;SDS011;22716;51.556;5.080;2023-07-20T08:03:05;1.15;;;0.82;;
36747;SDS011;22716;51.556;5.080;2023-07-20T08:05:34;1.53;;;0.50;;
36747;SDS011;22716;51.556;5.080;2023-07-20T08:08:03;8.13;;;1.80;;
36747;SDS011;22716;51.556;5.080;2023-07-20T08:10:36;2.33;;;0.70;;
36747;SDS011;22716;51.556;5.080;2023-07-20T08:13:05;0.52;;;0.52;;
36747;SDS011;22716;51.556;5.080;2023-07-20T08:15:33;1.15;;;0.80;;
36747;SDS011;22716;51.556;5.080;2023-07-20T08:18:02;1.00;;;0.70;;
36747;SDS011;22716;51.556;5.080;2023-07-20T08:20:31;4.63;;;1.00;;
36747;SDS011;22716;51.556;5.080;2023-07-20T08:23:01;0.67;;;0.67;;
36747;SDS011;22716;51.556;5.080;2023-07-20T08:25:29;1.13;;;0.77;;
36747;SDS011;22716;51.556;5.080;2023-07-20T08:28:01;2.93;;;0.90;;
36747;SDS011;22716;51.556;5.080;2023-07-20T08:30:38;1.50;;;0.50;;
36747;SDS011;22716;51.556;5.080;2023-07-20T08:33:09;0.80;;;0.47;;
36747;SDS011;22716;51.556;5.080;2023-07-20T08:35:38;1.00;;;0.53;;
36747;SDS011;22716;51.556;5.080;2023-07-20T08:38:06;0.80;;;0.50;;
36747;SDS011;22716;51.556;5.080;2023-07-20T08:40:39;3.08;;;0.68;;
36747;SDS011;22716;51.556;5.080;2023-07-20T08:43:11;2.05;;;0.98;;
36747;SDS011;22716;51.556;5.080;2023-07-20T08:45:42;2.20;;;0.60;;
36747;SDS011;22716;51.556;5.080;2023-07-20T08:48:13;0.90;;;0.50;;
36747;SDS011;22716;51.556;5.080;2023-07-20T08:50:42;1.67;;;0.70;;
36747;SDS011;22716;51.556;5.080;2023-07-20T08:53:13;2.15;;;0.50;;
36747;SDS011;22716;51.556;5.080;2023-07-20T08:55:43;1.45;;;0.55;;
36747;SDS011;22716;51.556;5.080;2023-07-20T08:58:16;2.23;;;0.70;;
36747;SDS011;22716;51.556;5.080;2023-07-20T09:00:46;2.87;;;1.23;;
36747;SDS011;22716;51.556;5.080;2023-07-20T09:03:15;2.38;;;0.90;;
36747;SDS011;22716;51.556;5.080;2023-07-20T09:05:44;1.17;;;0.50;;
36747;SDS011;22716;51.556;5.080;2023-07-20T09:08:13;0.90;;;0.73;;
36747;SDS011;22716;51.556;5.080;2023-07-20T09:10:41;0.60;;;0.50;;
36747;SDS011;22716;51.556;5.080;2023-07-20T09:13:16;2.40;;;0.60;;
36747;SDS011;22716;51.556;5.080;2023-07-20T09:15:48;1.47;;;1.13;;
36747;SDS011;22716;51.556;5.080;2023-07-20T09:18:25;5.97;;;0.90;;
36747;SDS011;22716;51.556;5.080;2023-07-20T09:20:57;0.90;;;0.75;;
36747;SDS011;22716;51.556;5.080;2023-07-20T09:23:31;1.75;;;0.93;;
36747;SDS011;22716;51.556;5.080;2023-07-20T09:26:00;1.90;;;0.70;;
36747;SDS011;22716;51.556;5.080;2023-07-20T09:28:44;3.10;;;0.93;;
36747;SDS011;22716;51.556;5.080;2023-07-20T09:31:16;1.97;;;0.80;;
36747;SDS011;22716;51.556;5.080;2023-07-20T09:33:46;0.90;;;0.70;;
36747;SDS011;22716;51.556;5.080;2023-07-20T09:36:16;4.20;;;0.97;;
36747;SDS011;22716;51.556;5.080;2023-07-20T09:38:44;4.57;;;1.17;;
36747;SDS011;22716;51.556;5.080;2023-07-20T09:41:14;8.32;;;1.23;;
36747;SDS011;22716;51.556;5.080;2023-07-20T09:43:46;2.88;;;1.00;;
36747;SDS011;22716;51.556;5.080;2023-07-20T09:46:15;9.53;;;3.33;;
36747;SDS011;22716;51.556;5.080;2023-07-20T09:48:51;8.70;;;4.20;;
36747;SDS011;22716;51.556;5.080;2023-07-20T09:51:21;8.50;;;2.83;;
36747;SDS011;22716;51.556;5.080;2023-07-20T09:53:51;6.85;;;3.80;;
36747;SDS011;22716;51.556;5.080;2023-07-20T09:56:21;6.32;;;2.55;;
36747;SDS011;22716;51.556;5.080;2023-07-20T09:58:56;4.13;;;2.30;;
36747;SDS011;22716;51.556;5.080;2023-07-20T10:01:25;2.97;;;1.30;;
36747;SDS011;22716;51.556;5.080;2023-07-20T10:03:57;2.53;;;1.27;;
36747;SDS011;22716;51.556;5.080;2023-07-20T10:06:27;2.63;;;1.10;;
36747;SDS011;22716;51.556;5.080;2023-07-20T10:09:01;2.67;;;1.00;;
36747;SDS011;22716;51.556;5.080;2023-07-20T10:11:35;1.43;;;0.87;;
36747;SDS011;22716;51.556;5.080;2023-07-20T10:14:07;2.57;;;1.20;;
36747;SDS011;22716;51.556;5.080;2023-07-20T10:16:39;2.65;;;0.90;;
36747;SDS011;22716;51.556;5.080;2023-07-20T10:19:15;1.20;;;1.00;;
36747;SDS011;22716;51.556;5.080;2023-07-20T10:21:55;2.78;;;0.95;;
36747;SDS011;22716;51.556;5.080;2023-07-20T10:24:27;4.37;;;2.07;;
36747;SDS011;22716;51.556;5.080;2023-07-20T10:26:56;5.83;;;2.03;;
36747;SDS011;22716;51.556;5.080;2023-07-20T10:29:28;3.77;;;1.13;;
36747;SDS011;22716;51.556;5.080;2023-07-20T10:31:58;3.77;;;1.70;;
36747;SDS011;22716;51.556;5.080;2023-07-20T10:34:27;2.67;;;1.27;;
36747;SDS011;22716;51.556;5.080;2023-07-20T10:36:56;3.43;;;1.03;;
36747;SDS011;22716;51.556;5.080;2023-07-20T10:39:25;1.38;;;1.00;;
36747;SDS011;22716;51.556;5.080;2023-07-20T10:41:59;2.23;;;0.90;;
36747;SDS011;22716;51.556;5.080;2023-07-20T10:47:01;2.33;;;0.93;;
36747;SDS011;22716;51.556;5.080;2023-07-20T10:49:32;2.53;;;0.65;;
36747;SDS011;22716;51.556;5.080;2023-07-20T10:52:04;1.30;;;0.90;;
36747;SDS011;22716;51.556;5.080;2023-07-20T10:54:34;1.47;;;1.17;;
36747;SDS011;22716;51.556;5.080;2023-07-20T10:57:22;1.52;;;0.80;;
36747;SDS011;22716;51.556;5.080;2023-07-20T11:00:13;1.92;;;1.00;;
36747;SDS011;22716;51.556;5.080;2023-07-20T11:02:43;1.33;;;0.97;;
36747;SDS011;22716;51.556;5.080;2023-07-20T11:05:32;7.30;;;1.00;;
36747;SDS011;22716;51.556;5.080;2023-07-20T11:08:06;2.43;;;0.80;;
36747;SDS011;22716;51.556;5.080;2023-07-20T11:10:40;1.80;;;0.93;;
36747;SDS011;22716;51.556;5.080;2023-07-20T11:13:18;0.97;;;0.87;;
36747;SDS011;22716;51.556;5.080;2023-07-20T11:16:03;22.50;;;10.10;;
36747;SDS011;22716;51.556;5.080;2023-07-20T11:21:06;0.60;;;0.60;;
36747;SDS011;22716;51.556;5.080;2023-07-20T11:26:08;2.05;;;1.05;;
36747;SDS011;22716;51.556;5.080;2023-07-20T11:28:37;0.90;;;0.60;;
36747;SDS011;22716;51.556;5.080;2023-07-20T11:31:09;1.77;;;0.80;;
36747;SDS011;22716;51.556;5.080;2023-07-20T11:33:37;8.05;;;2.78;;
36747;SDS011;22716;51.556;5.080;2023-07-20T11:36:06;6.90;;;3.63;;
36747;SDS011;22716;51.556;5.080;2023-07-20T11:38:36;9.27;;;4.27;;
36747;SDS011;22716;51.556;5.080;2023-07-20T11:41:07;4.37;;;1.27;;
36747;SDS011;22716;51.556;5.080;2023-07-20T11:43:36;1.35;;;1.02;;
36747;SDS011;22716;51.556;5.080;2023-07-20T11:46:08;4.70;;;1.13;;
36747;SDS011;22716;51.556;5.080;2023-07-20T11:48:37;5.40;;;2.67;;
36747;SDS011;22716;51.556;5.080;2023-07-20T11:51:05;2.80;;;1.10;;
36747;SDS011;22716;51.556;5.080;2023-07-20T11:53:34;25.38;;;10.50;;
36747;SDS011;22716;51.556;5.080;2023-07-20T11:56:04;73.50;;;32.87;;
36747;SDS011;22716;51.556;5.080;2023-07-20T11:58:33;8.65;;;3.67;;
36747;SDS011;22716;51.556;5.080;2023-07-20T12:01:01;4.23;;;2.47;;
36747;SDS011;22716;51.556;5.080;2023-07-20T12:03:32;5.43;;;1.60;;
36747;SDS011;22716;51.556;5.080;2023-07-20T12:06:06;3.60;;;0.97;;
36747;SDS011;22716;51.556;5.080;2023-07-20T12:08:37;2.17;;;1.10;;
36747;SDS011;22716;51.556;5.080;2023-07-20T12:11:07;2.80;;;1.00;;
36747;SDS011;22716;51.556;5.080;2023-07-20T12:13:37;2.73;;;1.30;;
36747;SDS011;22716;51.556;5.080;2023-07-20T12:16:08;1.43;;;1.00;;
36747;SDS011;22716;51.556;5.080;2023-07-20T12:18:42;2.83;;;1.53;;
36747;SDS011;22716;51.556;5.080;2023-07-20T12:21:11;6.30;;;1.50;;
36747;SDS011;22716;51.556;5.080;2023-07-20T12:23:40;6.60;;;2.70;;
36747;SDS011;22716;51.556;5.080;2023-07-20T12:26:10;4.90;;;1.67;;
36747;SDS011;22716;51.556;5.080;2023-07-20T12:28:39;4.17;;;2.60;;
36747;SDS011;22716;51.556;5.080;2023-07-20T12:31:09;9.70;;;4.57;;
36747;SDS011;22716;51.556;5.080;2023-07-20T12:33:38;10.33;;;3.87;;
36747;SDS011;22716;51.556;5.080;2023-07-20T12:36:10;2.33;;;1.67;;
36747;SDS011;22716;51.556;5.080;2023-07-20T12:38:39;2.40;;;0.80;;
36747;SDS011;22716;51.556;5.080;2023-07-20T12:41:09;1.73;;;1.20;;
36747;SDS011;22716;51.556;5.080;2023-07-20T12:43:40;2.87;;;1.30;;
36747;SDS011;22716;51.556;5.080;2023-07-20T12:46:09;3.70;;;1.20;;
36747;SDS011;22716;51.556;5.080;2023-07-20T12:48:38;3.87;;;2.00;;
36747;SDS011;22716;51.556;5.080;2023-07-20T12:51:11;1.88;;;1.65;;
36747;SDS011;22716;51.556;5.080;2023-07-20T12:53:40;2.27;;;1.40;;
36747;SDS011;22716;51.556;5.080;2023-07-20T12:56:08;1.50;;;1.33;;
36747;SDS011;22716;51.556;5.080;2023-07-20T12:58:37;2.70;;;1.00;;
36747;SDS011;22716;51.556;5.080;2023-07-20T13:01:06;8.80;;;1.57;;
36747;SDS011;22716;51.556;5.080;2023-07-20T13:03:34;8.27;;;2.07;;
36747;SDS011;22716;51.556;5.080;2023-07-20T13:06:03;6.18;;;3.63;;
36747;SDS011;22716;51.556;5.080;2023-07-20T13:08:34;10.10;;;3.80;;
36747;SDS011;22716;51.556;5.080;2023-07-20T13:11:03;17.80;;;9.33;;
36747;SDS011;22716;51.556;5.080;2023-07-20T13:13:32;12.50;;;5.60;;
36747;SDS011;22716;51.556;5.080;2023-07-20T13:16:01;27.17;;;8.93;;
36747;SDS011;22716;51.556;5.080;2023-07-20T13:18:29;35.70;;;16.53;;
36747;SDS011;22716;51.556;5.080;2023-07-20T13:20:58;5.67;;;2.60;;
36747;SDS011;22716;51.556;5.080;2023-07-20T13:23:26;4.13;;;1.98;;
36747;SDS011;22716;51.556;5.080;2023-07-20T13:25:57;4.28;;;2.05;;
36747;SDS011;22716;51.556;5.080;2023-07-20T13:28:26;17.38;;;7.30;;
36747;SDS011;22716;51.556;5.080;2023-07-20T13:30:54;3.43;;;1.50;;
36747;SDS011;22716;51.556;5.080;2023-07-20T13:33:23;7.60;;;2.37;;
36747;SDS011;22716;51.556;5.080;2023-07-20T13:35:52;2.80;;;1.50;;
36747;SDS011;22716;51.556;5.080;2023-07-20T13:38:21;10.05;;;1.67;;
36747;SDS011;22716;51.556;5.080;2023-07-20T13:40:49;3.93;;;2.40;;
36747;SDS011;22716;51.556;5.080;2023-07-20T13:43:20;13.63;;;5.87;;
36747;SDS011;22716;51.556;5.080;2023-07-20T13:45:49;8.75;;;5.28;;
36747;SDS011;22716;51.556;5.080;2023-07-20T13:48:17;5.17;;;1.37;;
36747;SDS011;22716;51.556;5.080;2023-07-20T13:50:48;1.80;;;1.00;;
36747;SDS011;22716;51.556;5.080;2023-07-20T13:53:18;8.97;;;4.57;;
36747;SDS011;22716;51.556;5.080;2023-07-20T13:55:48;3.53;;;1.50;;
36747;SDS011;22716;51.556;5.080;2023-07-20T13:58:18;3.50;;;1.52;;
36747;SDS011;22716;51.556;5.080;2023-07-20T14:00:49;7.57;;;1.67;;
36747;SDS011;22716;51.556;5.080;2023-07-20T14:03:17;5.47;;;1.40;;
36747;SDS011;22716;51.556;5.080;2023-07-20T14:05:46;3.53;;;1.97;;
36747;SDS011;22716;51.556;5.080;2023-07-20T14:08:14;1.90;;;1.53;;
36747;SDS011;22716;51.556;5.080;2023-07-20T14:10:43;2.83;;;1.43;;
36747;SDS011;22716;51.556;5.080;2023-07-20T14:13:12;3.47;;;1.30;;
36747;SDS011;22716;51.556;5.080;2023-07-20T14:15:43;4.07;;;1.60;;
36747;SDS011;22716;51.556;5.080;2023-07-20T14:18:12;3.13;;;1.60;;
36747;SDS011;22716;51.556;5.080;2023-07-20T14:20:40;2.17;;;1.10;;
36747;SDS011;22716;51.556;5.080;2023-07-20T14:23:09;3.10;;;1.27;;
36747;SDS011;22716;51.556;5.080;2023-07-20T14:25:38;4.20;;;1.40;;
36747;SDS011;22716;51.556;5.080;2023-07-20T14:28:07;4.03;;;1.60;;
36747;SDS011;22716;51.556;5.080;2023-07-20T14:30:35;4.13;;;1.73;;
36747;SDS011;22716;51.556;5.080;2023-07-20T14:33:07;3.13;;;1.93;;
36747;SDS011;22716;51.556;5.080;2023-07-20T14:35:35;3.07;;;1.97;;
36747;SDS011;22716;51.556;5.080;2023-07-20T14:38:04;12.95;;;2.13;;
36747;SDS011;22716;51.556;5.080;2023-07-20T14:40:33;6.30;;;4.60;;
36747;SDS011;22716;51.556;5.080;2023-07-20T14:43:01;5.25;;;3.05;;
36747;SDS011;22716;51.556;5.080;2023-07-20T14:45:30;4.72;;;3.05;;
36747;SDS011;22716;51.556;5.080;2023-07-20T14:47:58;3.22;;;2.08;;
36747;SDS011;22716;51.556;5.080;2023-07-20T14:50:29;2.67;;;1.73;;
36747;SDS011;22716;51.556;5.080;2023-07-20T14:52:58;2.27;;;2.07;;
36747;SDS011;22716;51.556;5.080;2023-07-20T14:55:27;3.43;;;2.13;;
36747;SDS011;22716;51.556;5.080;2023-07-20T14:57:55;3.73;;;2.77;;
36747;SDS011;22716;51.556;5.080;2023-07-20T15:00:24;3.40;;;1.60;;
36747;SDS011;22716;51.556;5.080;2023-07-20T15:02:53;5.37;;;1.87;;
36747;SDS011;22716;51.556;5.080;2023-07-20T15:05:22;4.45;;;1.58;;
36747;SDS011;22716;51.556;5.080;2023-07-20T15:07:54;3.00;;;2.70;;